Terminal Aerodrome Forecast
Issued by NWS

Home | Current Version | Previous Version | Text Only | Print | Product List | Glossary On
Versions: 1 2 3 4 5 6 7 8 9 10 11 12
000
FTUS45 KABQ 201133
TAFGUP
TAF
KGUP 201133Z 2012/2112 00000KT P6SM FEW250
     FM201700 20014KT P6SM BKN200
     FM202000 22023G33KT P6SM BKN080
     FM210100 25021G30KT P6SM OVC030
      TEMPO 2101/2103 4SM -RASN OVC020
     FM210300 23018G28KT P6SM -SN OVC020=

USA.gov is the U.S. government's official web portal to all federal, state and local government web resources and services.